Time;durP1;ratioP1;P1;durP2;ratioP2;P2;SDS_P1;SDS_P2;PMS_P1;PMS_P2;Temp;Humidity;BMP_temperature;BMP_pressure;BME280_temperature;BME280_humidity;BME280_pressure;Samples;Min_cycle;Max_cycle;Signal;HPM_P1;HPM_P2
2023/08/23 00:00:12;;;;;;;18.73;11.07;;;17.40;99.90;;;;;;5068155;28;20548;-76
2023/08/23 00:02:38;;;;;;;16.85;10.27;;;18.30;99.90;;;;;;5096093;28;20050;-77
2023/08/23 00:05:04;;;;;;;18.67;10.07;;;18.70;99.90;;;;;;5049416;28;20039;-76
2023/08/23 00:07:30;;;;;;;16.42;9.77;;;19.40;99.90;;;;;;5059008;28;20044;-76
2023/08/23 00:09:56;;;;;;;14.80;9.15;;;;;;;;;;5075802;28;20499;-75
2023/08/23 00:12:22;;;;;;;13.88;9.27;;;;;;;;;;5075726;28;20032;-76
2023/08/23 00:14:48;;;;;;;14.40;9.45;;;;;;;;;;5079614;28;20371;-75
2023/08/23 00:17:14;;;;;;;18.35;9.82;;;17.30;99.90;;;;;;5078652;28;20305;-76
2023/08/23 00:19:40;;;;;;;20.92;11.52;;;;;;;;;;5077210;28;20036;-75
2023/08/23 00:22:06;;;;;;;20.95;11.10;;;;;;;;;;5075599;28;20417;-75
2023/08/23 00:24:32;;;;;;;29.13;11.85;;;17.10;99.90;;;;;;5084881;28;20043;-76
2023/08/23 00:26:58;;;;;;;24.15;12.25;;;;;;;;;;5058328;28;20054;-78
2023/08/23 00:29:24;;;;;;;24.00;12.35;;;17.10;99.90;;;;;;5078488;28;20118;-78
2023/08/23 00:31:50;;;;;;;23.88;11.90;;;;;;;;;;5068017;28;20123;-78
2023/08/23 00:34:16;;;;;;;23.33;11.52;;;;;;;;;;5075297;28;20036;-78
2023/08/23 00:36:42;;;;;;;20.40;10.45;;;;;;;;;;5076002;28;20118;-77
2023/08/23 00:39:08;;;;;;;16.15;10.18;;;;;;;;;;5059305;28;20054;-78
2023/08/23 00:41:35;;;;;;;20.27;10.75;;;17.70;99.90;;;;;;5094563;28;20115;-78
2023/08/23 00:44:01;;;;;;;19.38;11.52;;;18.80;99.90;;;;;;5095412;28;20039;-79
2023/08/23 00:46:27;;;;;;;18.88;10.77;;;;;;;;;;5081330;28;20427;-79
2023/08/23 00:48:54;;;;;;;19.65;12.32;;;17.90;99.90;;;;;;5073171;28;20036;-78
2023/08/23 00:51:20;;;;;;;16.90;10.07;;;18.60;99.90;;;;;;5087045;28;20059;-78
2023/08/23 00:53:47;;;;;;;19.98;10.98;;;;;;;;;;5095158;28;20040;-79
2023/08/23 00:56:12;;;;;;;16.55;10.45;;;18.70;99.90;;;;;;5089835;28;20395;-78
2023/08/23 00:58:39;;;;;;;16.92;11.40;;;;;;;;;;5071238;28;20130;-78
2023/08/23 01:01:04;;;;;;;19.17;11.52;;;18.80;99.90;;;;;;5056333;28;20504;-78
2023/08/23 01:03:31;;;;;;;21.50;11.75;;;18.20;99.90;;;;;;5081577;28;20036;-78
2023/08/23 01:06:31;;;;;;;19.40;12.35;;;18.50;99.90;;;;;;5078539;28;20063;-78
2023/08/23 01:09:36;;;;;;;17.67;10.98;;;18.10;99.90;;;;;;5094538;28;20059;-78
2023/08/23 01:12:13;;;;;;;20.83;12.48;;;18.30;99.90;;;;;;5077400;28;20230;-78
2023/08/23 01:14:51;;;;;;;23.30;12.52;;;17.80;99.90;;;;;;5082037;28;20040;-78
2023/08/23 01:17:19;;;;;;;21.02;12.20;;;17.50;99.90;;;;;;5057865;28;20464;-79
2023/08/23 01:19:47;;;;;;;22.80;13.95;;;17.20;99.90;;;;;;5070091;28;20048;-78
2023/08/23 01:22:18;;;;;;;22.25;12.25;;;18.10;99.90;;;;;;5094860;28;20107;-79
2023/08/23 01:24:44;;;;;;;20.42;12.38;;;17.40;99.90;;;;;;5066185;28;20047;-78
2023/08/23 01:27:10;;;;;;;25.00;12.73;;;17.60;99.90;;;;;;5058028;28;20036;-79
2023/08/23 01:29:36;;;;;;;28.17;13.35;;;19.00;99.90;;;;;;5059206;28;20040;-78
2023/08/23 01:32:50;;;;;;;18.17;11.52;;;17.50;99.90;;;;;;5086016;28;20038;-78
2023/08/23 01:35:32;;;;;;;25.08;12.45;;;18.10;99.90;;;;;;5013015;28;20037;-78
2023/08/23 01:38:01;;;;;;;20.05;11.63;;;17.90;99.90;;;;;;5092072;28;20047;-78
2023/08/23 01:40:27;;;;;;;21.77;12.60;;;17.90;99.90;;;;;;5081056;28;20040;-78
2023/08/23 01:42:55;;;;;;;24.13;12.27;;;17.40;99.90;;;;;;5078577;28;20388;-78
2023/08/23 01:45:21;;;;;;;26.55;11.82;;;;;;;;;;5091025;28;20366;-78
2023/08/23 01:47:46;;;;;;;21.70;12.35;;;17.90;99.90;;;;;;5098705;28;20036;-76
2023/08/23 01:50:13;;;;;;;27.27;13.65;;;;;;;;;;5078013;28;20058;-76
2023/08/23 01:52:38;;;;;;;24.45;13.32;;;16.80;99.90;;;;;;5061874;28;20067;-76
2023/08/23 01:55:04;;;;;;;20.80;12.52;;;17.00;99.90;;;;;;5079497;28;20075;-75
2023/08/23 01:57:30;;;;;;;29.02;12.82;;;;;;;;;;5079822;28;20044;-78
2023/08/23 01:59:56;;;;;;;24.40;12.95;;;;;;;;;;5087156;28;20090;-78
2023/08/23 02:02:22;;;;;;;22.58;13.60;;;18.00;99.90;;;;;;5055690;28;20274;-78
2023/08/23 02:04:49;;;;;;;25.10;12.65;;;;;;;;;;5047132;28;20135;-78
2023/08/23 02:07:15;;;;;;;20.50;12.02;;;18.70;99.90;;;;;;5058294;28;20086;-79
2023/08/23 02:09:41;;;;;;;25.15;12.98;;;;;;;;;;5059966;28;20033;-79
2023/08/23 02:12:07;;;;;;;25.70;13.68;;;18.00;99.90;;;;;;5074213;28;20048;-79
2023/08/23 02:14:32;;;;;;;23.70;13.15;;;16.60;99.90;;;;;;5049877;28;20036;-78
2023/08/23 02:16:58;;;;;;;21.65;13.50;;;;;;;;;;5066905;28;20604;-78
2023/08/23 02:19:24;;;;;;;21.80;12.88;;;;;;;;;;5063175;28;20120;-78
2023/08/23 02:21:51;;;;;;;23.08;12.50;;;16.70;99.90;;;;;;5062663;28;20481;-78
2023/08/23 02:24:16;;;;;;;24.05;12.52;;;17.50;99.90;;;;;;5057987;28;20469;-78
2023/08/23 02:26:42;;;;;;;17.75;11.30;;;18.30;99.90;;;;;;5044753;28;20128;-78
2023/08/23 02:29:08;;;;;;;20.98;11.80;;;;;;;;;;5034642;28;20127;-75
2023/08/23 02:31:34;;;;;;;15.68;10.98;;;;;;;;;;5040056;28;20048;-76
2023/08/23 02:34:00;;;;;;;20.00;12.20;;;18.70;99.90;;;;;;5057012;28;20068;-75
2023/08/23 02:36:25;;;;;;;21.42;11.85;;;18.70;99.90;;;;;;5039636;28;20449;-75
2023/08/23 02:38:52;;;;;;;22.13;12.98;;;;;;;;;;5063883;28;20428;-76
2023/08/23 02:41:18;;;;;;;24.67;12.25;;;;;;;;;;5063958;28;20040;-76
2023/08/23 02:43:44;;;;;;;25.98;13.43;;;;;;;;;;5069398;28;20036;-78
2023/08/23 02:46:10;;;;;;;24.23;13.32;;;;;;;;;;5072021;28;20041;-78
2023/08/23 02:48:36;;;;;;;27.73;14.65;;;;;;;;;;5073536;28;20094;-78
2023/08/23 02:51:02;;;;;;;25.15;13.50;;;;;;;;;;5057335;28;20040;-75
2023/08/23 02:53:28;;;;;;;24.85;14.40;;;18.90;99.90;;;;;;5056641;28;20094;-76
2023/08/23 02:55:54;;;;;;;25.42;14.00;;;;;;;;;;5062472;28;20493;-75
2023/08/23 02:58:20;;;;;;;21.17;13.88;;;16.60;99.90;;;;;;5056095;28;20074;-76
2023/08/23 03:00:46;;;;;;;22.75;13.88;;;;;;;;;;5052715;28;20056;-76
2023/08/23 03:03:11;;;;;;;27.55;14.25;;;18.40;99.90;;;;;;5071192;28;20055;-76
2023/08/23 03:05:37;;;;;;;23.60;14.80;;;;;;;;;;5055635;28;20041;-76
2023/08/23 03:08:03;;;;;;;26.42;13.80;;;18.60;99.90;;;;;;5072959;28;20146;-76
2023/08/23 03:10:29;;;;;;;24.10;14.55;;;;;;;;;;5073384;28;20103;-76
2023/08/23 03:12:55;;;;;;;29.67;14.93;;;;;;;;;;5056236;28;20040;-76
2023/08/23 03:15:21;;;;;;;26.65;15.07;;;18.70;99.90;;;;;;5072920;28;20491;-76
2023/08/23 03:17:47;;;;;;;25.67;15.35;;;;;;;;;;5073319;28;20115;-76
2023/08/23 03:20:13;;;;;;;24.48;14.80;;;;;;;;;;5073484;28;20060;-75
2023/08/23 03:22:40;;;;;;;25.80;15.32;;;18.40;99.90;;;;;;5056304;28;20381;-75
2023/08/23 03:25:06;;;;;;;22.40;14.48;;;17.90;99.90;;;;;;5073317;28;20423;-75
2023/08/23 03:27:32;;;;;;;27.17;14.57;;;;;;;;;;5072791;28;20040;-75
2023/08/23 03:29:57;;;;;;;25.77;15.60;;;18.90;99.90;;;;;;5066405;28;20094;-75
2023/08/23 03:32:23;;;;;;;26.45;15.65;;;;;;;;;;5073341;28;20037;-75
2023/08/23 03:34:49;;;;;;;26.92;15.85;;;16.40;99.90;;;;;;5055561;28;20495;-77
2023/08/23 03:37:15;;;;;;;30.95;17.05;;;;;;;;;;5071047;28;20045;-75
2023/08/23 03:39:41;;;;;;;27.85;15.88;;;18.70;99.90;;;;;;5071512;28;20036;-75
2023/08/23 03:42:07;;;;;;;27.73;16.02;;;18.90;99.90;;;;;;5054983;28;20037;-75
2023/08/23 03:44:33;;;;;;;26.27;16.42;;;;;;;;;;5071253;28;20465;-78
2023/08/23 03:46:59;;;;;;;29.25;16.50;;;;;;;;;;5071375;28;20036;-78
2023/08/23 03:49:25;;;;;;;31.20;17.33;;;;;;;;;;5054433;28;20043;-78
2023/08/23 03:51:51;;;;;;;25.67;14.98;;;18.80;99.90;;;;;;5071167;28;20055;-75
2023/08/23 03:54:20;;;;;;;25.50;16.02;;;17.80;99.90;;;;;;5071315;28;20481;-79
2023/08/23 03:56:46;;;;;;;36.20;16.60;;;;;;;;;;5054378;28;20117;-77
2023/08/23 03:59:12;;;;;;;26.73;14.98;;;;;;;;;;5070619;28;20032;-78
2023/08/23 04:01:38;;;;;;;27.50;16.83;;;18.80;99.90;;;;;;5084189;28;20059;-69
2023/08/23 04:04:04;;;;;;;31.23;15.65;;;18.50;99.90;;;;;;5074859;28;20037;-77
2023/08/23 04:06:30;;;;;;;29.35;16.60;;;;;;;;;;5085913;28;20476;-77
2023/08/23 04:08:56;;;;;;;21.25;12.70;;;;;;;;;;5081851;28;20068;-80
2023/08/23 04:11:22;;;;;;;24.05;14.40;;;;;;;;;;5056506;28;20032;-79
2023/08/23 04:13:48;;;;;;;32.30;18.08;;;;;;;;;;5086060;28;20117;-78
2023/08/23 04:16:14;;;;;;;27.10;16.25;;;17.80;99.90;;;;;;5079549;28;20024;-78
2023/08/23 04:18:40;;;;;;;23.98;15.98;;;;;;;;;;5076774;28;20332;-77
2023/08/23 04:21:06;;;;;;;28.73;16.98;;;;;;;;;;5073185;28;20112;-78
2023/08/23 04:23:32;;;;;;;32.42;16.55;;;;;;;;;;5074118;28;20131;-78
2023/08/23 04:25:58;;;;;;;30.48;16.67;;;;;;;;;;5054196;28;20047;-78
2023/08/23 04:28:24;;;;;;;27.42;17.13;;;18.80;99.90;;;;;;5072630;28;20047;-78
2023/08/23 04:30:50;;;;;;;39.20;18.38;;;18.90;99.90;;;;;;5087504;28;20040;-78
2023/08/23 04:33:16;;;;;;;24.77;16.05;;;;;;;;;;5089850;28;20381;-78
2023/08/23 04:35:42;;;;;;;27.17;16.90;;;16.90;99.90;;;;;;5089957;28;20032;-77
2023/08/23 04:38:11;;;;;;;33.15;17.77;;;18.50;99.90;;;;;;5073115;28;20371;-77
2023/08/23 04:40:37;;;;;;;27.25;16.58;;;;;;;;;;5062985;28;20048;-73
2023/08/23 04:43:03;;;;;;;32.10;18.35;;;18.40;99.90;;;;;;5058310;28;20067;-73
2023/08/23 04:45:29;;;;;;;35.95;18.90;;;;;;;;;;5056423;28;20044;-73
2023/08/23 04:47:55;;;;;;;36.38;20.35;;;16.50;99.90;;;;;;5064959;28;20507;-73
2023/08/23 04:50:21;;;;;;;34.67;19.55;;;;;;;;;;5052920;28;20037;-73
2023/08/23 04:52:47;;;;;;;35.22;19.98;;;17.80;99.90;;;;;;5055323;28;20037;-73
2023/08/23 04:55:13;;;;;;;29.95;18.98;;;;;;;;;;5071339;28;20399;-76
2023/08/23 04:57:39;;;;;;;31.00;18.15;;;16.90;99.90;;;;;;5038321;28;20044;-77
2023/08/23 05:00:08;;;;;;;30.83;18.40;;;18.30;99.90;;;;;;5073592;28;20044;-77
2023/08/23 05:02:34;;;;;;;37.35;19.95;;;;;;;;;;5078459;28;20097;-77
2023/08/23 05:05:00;;;;;;;32.85;20.13;;;17.50;99.90;;;;;;5078541;28;20043;-77
2023/08/23 05:07:26;;;;;;;35.08;18.52;;;;;;;;;;5061246;28;20402;-73
2023/08/23 05:09:52;;;;;;;31.20;18.65;;;18.60;99.90;;;;;;5062220;28;20092;-73
2023/08/23 05:12:19;;;;;;;34.17;20.10;;;;;;;;;;5065463;28;20031;-73
2023/08/23 05:14:45;;;;;;;37.30;20.20;;;18.70;99.90;;;;;;5098881;28;20054;-73
2023/08/23 05:17:11;;;;;;;32.45;17.85;;;;;;;;;;5082053;28;20035;-73
2023/08/23 05:19:37;;;;;;;29.00;17.48;;;17.10;99.90;;;;;;5098912;28;20042;-73
2023/08/23 05:22:03;;;;;;;32.67;19.33;;;;;;;;;;5048742;28;20143;-73
2023/08/23 05:24:29;;;;;;;31.42;18.05;;;16.90;99.90;;;;;;5082279;28;20070;-73
2023/08/23 05:26:55;;;;;;;31.08;18.88;;;;;;;;;;5081904;28;20545;-73
2023/08/23 05:29:21;;;;;;;36.10;19.85;;;;;;;;;;5099419;28;20499;-72
2023/08/23 05:31:46;;;;;;;32.38;18.95;;;18.60;99.90;;;;;;5099094;28;20088;-73
2023/08/23 05:34:12;;;;;;;30.00;18.20;;;17.90;99.90;;;;;;5082702;28;20032;-73
2023/08/23 05:36:38;;;;;;;30.15;18.98;;;;;;;;;;5101793;28;20032;-77
2023/08/23 05:39:05;;;;;;;27.13;17.20;;;;;;;;;;5100608;28;20544;-77
2023/08/23 05:41:30;;;;;;;30.40;19.30;;;16.60;99.90;;;;;;5099097;28;20098;-77
2023/08/23 05:43:56;;;;;;;30.58;18.13;;;;;;;;;;5081742;28;20467;-77
2023/08/23 05:46:22;;;;;;;28.60;17.15;;;17.90;99.90;;;;;;5098478;28;20479;-78
2023/08/23 05:48:49;;;;;;;29.58;18.40;;;18.00;99.90;;;;;;5081554;28;20051;-77
2023/08/23 05:51:14;;;;;;;32.20;18.20;;;16.50;99.90;;;;;;5081800;28;20549;-77
2023/08/23 05:53:40;;;;;;;43.45;23.08;;;18.30;99.90;;;;;;5098183;28;20044;-77
2023/08/23 05:56:06;;;;;;;30.90;17.67;;;17.00;99.90;;;;;;5064723;28;20092;-77
2023/08/23 05:58:32;;;;;;;35.75;20.88;;;16.50;99.90;;;;;;5098565;28;20035;-77
2023/08/23 06:00:57;;;;;;;32.08;19.67;;;18.40;99.90;;;;;;5064453;28;20051;-77
2023/08/23 06:03:24;;;;;;;40.78;19.30;;;;;;;;;;5081452;28;20047;-77
2023/08/23 06:05:56;;;;;;;37.97;20.45;;;18.00;99.90;;;;;;5082066;28;20047;-77
2023/08/23 06:08:22;;;;;;;40.78;22.23;;;;;;;;;;5081936;28;20040;-73
2023/08/23 06:10:48;;;;;;;32.25;19.55;;;19.00;99.90;;;;;;5080957;28;20071;-74
2023/08/23 06:13:15;;;;;;;34.22;21.13;;;;;;;;;;5080782;28;20094;-73
2023/08/23 06:15:41;;;;;;;39.63;21.67;;;18.30;99.90;;;;;;5097532;28;20067;-73
2023/08/23 06:18:07;;;;;;;33.42;19.73;;;;;;;;;;5097947;28;20031;-73
2023/08/23 06:20:32;;;;;;;31.42;19.00;;;17.70;99.90;;;;;;5097829;28;20043;-73
2023/08/23 06:22:58;;;;;;;31.13;20.13;;;;;;;;;;5079913;28;20050;-74
2023/08/23 06:25:25;;;;;;;39.10;20.52;;;19.20;99.90;;;;;;5097925;28;20074;-73
2023/08/23 06:27:51;;;;;;;32.17;19.65;;;;;;;;;;5097683;28;20038;-73
2023/08/23 06:30:17;;;;;;;37.65;19.23;;;;;;;;;;5080588;28;20036;-73
2023/08/23 06:32:49;;;;;;;38.17;18.27;;;19.00;99.90;;;;;;5080922;28;20028;-73
2023/08/23 06:35:16;;;;;;;39.03;17.48;;;18.30;99.90;;;;;;5097571;28;20528;-73
2023/08/23 06:37:42;;;;;;;42.05;20.40;;;19.40;99.90;;;;;;5097267;28;20067;-73
2023/08/23 06:40:12;;;;;;;37.85;21.30;;;19.30;99.90;;;;;;5097300;28;20035;-73
2023/08/23 06:42:38;;;;;;;40.50;21.20;;;19.20;99.90;;;;;;5097676;28;20120;-73
2023/08/23 06:45:05;;;;;;;38.38;20.92;;;18.60;99.90;;;;;;5097640;28;20119;-74
2023/08/23 06:47:31;;;;;;;33.97;19.90;;;18.20;99.90;;;;;;5098193;28;20051;-73
2023/08/23 06:49:57;;;;;;;35.33;19.58;;;17.80;99.90;;;;;;5080766;28;20039;-73
2023/08/23 06:52:23;;;;;;;29.77;17.95;;;;;;;;;;5063984;28;20042;-73
2023/08/23 06:54:49;;;;;;;32.33;17.35;;;18.80;99.90;;;;;;5080458;28;20039;-73
2023/08/23 06:57:15;;;;;;;38.17;18.83;;;17.70;99.90;;;;;;5097188;28;20039;-73
2023/08/23 06:59:41;;;;;;;41.28;20.83;;;19.70;99.90;;;;;;5080086;28;20478;-73
2023/08/23 07:02:07;;;;;;;37.78;19.77;;;;;;;;;;5096810;28;20094;-73
2023/08/23 07:04:33;;;;;;;29.42;17.88;;;;;;;;;;5080015;28;20051;-77
2023/08/23 07:06:58;;;;;;;33.97;17.08;;;19.20;99.90;;;;;;5063129;28;20073;-77
2023/08/23 07:09:24;;;;;;;38.38;18.70;;;20.00;99.90;;;;;;5097077;28;20035;-77
2023/08/23 07:11:51;;;;;;;39.28;19.45;;;20.10;99.90;;;;;;5096673;28;20047;-77
2023/08/23 07:14:17;;;;;;;37.38;19.45;;;19.60;99.90;;;;;;5114834;28;20361;-77
2023/08/23 07:16:43;;;;;;;36.50;17.38;;;20.20;99.90;;;;;;5079590;28;20119;-77
2023/08/23 07:19:09;;;;;;;28.05;16.92;;;;;;;;;;5079806;28;20051;-77
2023/08/23 07:21:35;;;;;;;35.55;16.98;;;;;;;;;;5096456;28;20058;-77
2023/08/23 07:24:01;;;;;;;38.55;17.08;;;19.60;99.90;;;;;;5096538;28;20039;-78
2023/08/23 07:26:26;;;;;;;32.35;18.10;;;20.40;99.90;;;;;;5096643;28;20047;-77
2023/08/23 07:28:53;;;;;;;38.13;19.05;;;;;;;;;;5079405;28;20380;-77
2023/08/23 07:31:19;;;;;;;37.55;20.13;;;;;;;;;;5096226;28;20042;-77
2023/08/23 07:33:44;;;;;;;31.73;17.92;;;19.80;99.90;;;;;;5078631;28;20379;-77
2023/08/23 07:36:11;;;;;;;41.03;19.55;;;20.30;99.90;;;;;;5079063;28;20118;-77
2023/08/23 07:38:37;;;;;;;31.15;16.88;;;;;;;;;;5096021;28;20540;-77
2023/08/23 07:41:03;;;;;;;32.05;17.13;;;20.00;99.90;;;;;;5079256;28;20039;-77
2023/08/23 07:43:29;;;;;;;30.90;15.65;;;20.40;99.90;;;;;;5078914;28;20043;-77
2023/08/23 07:45:56;;;;;;;30.90;14.98;;;19.60;99.90;;;;;;5078933;28;20054;-77
2023/08/23 07:48:23;;;;;;;32.67;14.65;;;19.70;99.90;;;;;;5095905;28;20127;-77
2023/08/23 07:50:50;;;;;;;36.33;15.38;;;19.70;99.90;;;;;;5095911;28;20038;-77
2023/08/23 07:53:16;;;;;;;30.23;14.88;;;20.70;99.90;;;;;;5096090;28;20043;-77
2023/08/23 07:55:42;;;;;;;26.13;13.90;;;20.70;99.90;;;;;;5078906;28;20039;-77
2023/08/23 07:58:08;;;;;;;26.85;12.88;;;;;;;;;;5095759;28;20050;-77
2023/08/23 08:00:34;;;;;;;31.90;14.90;;;21.60;99.90;;;;;;5062153;28;20055;-77
2023/08/23 08:03:02;;;;;;;22.67;12.63;;;;;;;;;;5095703;28;20051;-77
2023/08/23 08:05:28;;;;;;;28.92;13.93;;;;;;;;;;5079110;28;20047;-77
2023/08/23 08:07:54;;;;;;;30.95;14.93;;;;;;;;;;5095581;28;20050;-77
2023/08/23 08:10:20;;;;;;;32.03;14.45;;;21.00;99.90;;;;;;5079094;28;20035;-77
2023/08/23 08:12:46;;;;;;;29.17;14.63;;;;;;;;;;5062122;28;20391;-77
2023/08/23 08:15:12;;;;;;;32.85;14.77;;;21.00;99.90;;;;;;5079099;28;20119;-77
2023/08/23 08:17:38;;;;;;;31.58;15.82;;;;;;;;;;5095793;28;20469;-77
2023/08/23 08:20:05;;;;;;;30.50;16.98;;;21.20;99.90;;;;;;5095803;28;20040;-74
2023/08/23 08:22:31;;;;;;;27.98;13.90;;;21.00;99.90;;;;;;5078787;28;20043;-73
2023/08/23 08:24:57;;;;;;;23.65;13.05;;;20.90;99.90;;;;;;5079200;28;20105;-73
2023/08/23 08:27:23;;;;;;;26.73;13.85;;;21.60;99.90;;;;;;5062142;28;20480;-77
2023/08/23 08:29:50;;;;;;;23.55;12.18;;;;;;;;;;5078763;28;20036;-77
2023/08/23 08:32:15;;;;;;;23.00;12.30;;;21.70;99.90;;;;;;5078497;28;20039;-77
2023/08/23 08:34:41;;;;;;;27.45;11.63;;;;;;;;;;5078692;28;20093;-77
2023/08/23 08:37:07;;;;;;;26.90;10.88;;;;;;;;;;5078575;28;20104;-77
2023/08/23 08:39:33;;;;;;;18.13;10.10;;;;;;;;;;5095245;28;20043;-77
2023/08/23 08:41:59;;;;;;;21.50;11.30;;;21.70;99.90;;;;;;5095192;28;20107;-77
2023/08/23 08:44:25;;;;;;;24.60;13.32;;;;;;;;;;5094672;28;20043;-77
2023/08/23 08:46:52;;;;;;;27.40;13.77;;;21.80;99.90;;;;;;5095161;28;20043;-77
2023/08/23 08:49:18;;;;;;;32.40;14.90;;;21.60;99.90;;;;;;5113360;28;20500;-77
2023/08/23 08:51:47;;;;;;;32.05;15.45;;;21.80;99.90;;;;;;5078431;28;20035;-77
2023/08/23 08:54:17;;;;;;;21.20;11.07;;;21.20;99.90;;;;;;5061636;28;20045;-77
2023/08/23 08:56:53;;;;;;;24.23;11.57;;;21.90;99.90;;;;;;5095236;28;20044;-77
2023/08/23 08:59:19;;;;;;;24.60;11.00;;;21.70;99.90;;;;;;5094860;28;20044;-77
2023/08/23 09:01:45;;;;;;;18.38;9.82;;;21.60;99.90;;;;;;5082463;28;20064;-77
2023/08/23 09:04:12;;;;;;;20.95;9.10;;;;;;;;;;5054951;28;20102;-77
2023/08/23 09:06:38;;;;;;;21.58;9.63;;;21.50;99.90;;;;;;5054930;28;20052;-77
2023/08/23 09:09:04;;;;;;;18.38;9.77;;;;;;;;;;5054904;28;20056;-77
2023/08/23 09:11:30;;;;;;;25.05;10.82;;;21.30;99.90;;;;;;5071617;28;20071;-77
2023/08/23 09:13:57;;;;;;;24.50;12.48;;;;;;;;;;5054511;28;20483;-77
2023/08/23 09:16:26;;;;;;;21.33;11.63;;;22.10;99.90;;;;;;5071375;28;20041;-77
2023/08/23 09:18:52;;;;;;;19.00;10.07;;;22.40;99.90;;;;;;5071313;28;20036;-77
2023/08/23 09:21:20;;;;;;;19.02;8.00;;;;;;;;;;5071106;28;20151;-77
2023/08/23 09:23:49;;;;;;;16.33;7.60;;;21.80;99.90;;;;;;5071089;28;20051;-77
2023/08/23 09:26:15;;;;;;;13.57;8.35;;;21.90;99.90;;;;;;5071153;28;20058;-77
2023/08/23 09:28:41;;;;;;;18.02;8.05;;;;;;;;;;5054394;28;20036;-77
2023/08/23 09:31:10;;;;;;;20.63;10.77;;;22.30;99.90;;;;;;5071107;28;20039;-77
2023/08/23 09:33:37;;;;;;;22.13;10.10;;;21.30;99.90;;;;;;5054718;28;20044;-77
2023/08/23 09:36:03;;;;;;;18.73;8.30;;;21.60;99.90;;;;;;5071197;28;20032;-77
2023/08/23 09:38:29;;;;;;;13.57;7.60;;;;;;;;;;5054350;28;20511;-77
2023/08/23 09:40:57;;;;;;;17.65;8.55;;;22.90;99.90;;;;;;5038301;28;20041;-77
2023/08/23 09:43:30;;;;;;;19.55;8.70;;;22.20;99.90;;;;;;5054601;28;20127;-77
2023/08/23 09:45:58;;;;;;;15.07;8.65;;;22.90;99.90;;;;;;5071242;28;20123;-77
2023/08/23 09:48:26;;;;;;;17.13;8.38;;;22.70;99.90;;;;;;5054430;28;20080;-76
2023/08/23 09:50:54;;;;;;;20.40;9.75;;;22.50;99.90;;;;;;5054370;28;20115;-76
2023/08/23 09:53:22;;;;;;;23.73;9.77;;;22.10;99.90;;;;;;5054361;28;20036;-76
2023/08/23 09:55:48;;;;;;;17.98;9.10;;;22.00;99.90;;;;;;5070995;28;20079;-76
2023/08/23 09:58:15;;;;;;;15.20;6.93;;;23.30;99.90;;;;;;5073980;28;20075;-77
2023/08/23 10:00:41;;;;;;;14.07;8.07;;;22.00;99.90;;;;;;5074816;28;20040;-77
2023/08/23 10:03:08;;;;;;;24.05;10.13;;;23.40;99.90;;;;;;5057808;28;20133;-77
2023/08/23 10:05:35;;;;;;;19.10;9.27;;;22.40;99.90;;;;;;5024661;28;20048;-77
2023/08/23 10:08:02;;;;;;;20.00;9.32;;;23.70;99.90;;;;;;5074174;28;20051;-77
2023/08/23 10:10:30;;;;;;;22.35;8.82;;;23.30;99.90;;;;;;5057995;28;20076;-77
2023/08/23 10:13:04;;;;;;;20.00;8.02;;;23.50;99.90;;;;;;5057514;28;20037;-77
2023/08/23 10:15:37;;;;;;;16.35;8.68;;;23.50;98.80;;;;;;5074419;28;20041;-77
2023/08/23 10:18:06;;;;;;;13.73;6.00;;;23.60;99.60;;;;;;5074182;28;20052;-77
2023/08/23 10:20:36;;;;;;;12.88;6.05;;;24.10;99.90;;;;;;5074091;28;20076;-77
2023/08/23 10:23:22;;;;;;;20.13;6.82;;;24.40;99.90;;;;;;5074379;28;20040;-76
2023/08/23 10:25:49;;;;;;;20.70;7.20;;;24.40;99.90;;;;;;5057262;28;20461;-76
2023/08/23 10:28:18;;;;;;;13.60;6.38;;;24.80;99.90;;;;;;5057438;28;20393;-77
2023/08/23 10:30:50;;;;;;;15.23;6.47;;;24.30;97.00;;;;;;5074114;28;20396;-77
2023/08/23 10:33:16;;;;;;;14.68;5.70;;;24.60;97.70;;;;;;5073903;28;20045;-77
2023/08/23 10:35:45;;;;;;;12.52;4.82;;;23.90;99.90;;;;;;5057128;28;20161;-77
2023/08/23 10:38:11;;;;;;;15.27;5.13;;;25.00;99.90;;;;;;5074125;28;20500;-77
2023/08/23 10:40:40;;;;;;;11.70;5.15;;;24.80;99.90;;;;;;5073781;28;20170;-77
2023/08/23 10:43:14;;;;;;;10.80;4.80;;;24.00;98.00;;;;;;5073633;28;20137;-77
2023/08/23 10:45:50;;;;;;;13.05;5.63;;;24.50;95.40;;;;;;5073703;28;20055;-77
2023/08/23 10:48:23;;;;;;;9.93;5.10;;;24.20;99.90;;;;;;5073554;28;20132;-77
2023/08/23 10:50:50;;;;;;;11.32;5.25;;;25.00;99.90;;;;;;5041134;28;20500;-77
2023/08/23 10:53:17;;;;;;;15.98;4.97;;;25.40;96.20;;;;;;5056712;28;20579;-77
2023/08/23 10:55:43;;;;;;;14.30;4.45;;;25.70;99.80;;;;;;5073668;28;20044;-77
2023/08/23 10:58:09;;;;;;;17.10;5.60;;;25.50;99.30;;;;;;5073407;28;20037;-77
2023/08/23 11:00:36;;;;;;;10.07;4.50;;;24.90;95.00;;;;;;5073877;28;20042;-77
2023/08/23 11:03:04;;;;;;;13.90;4.43;;;25.90;98.40;;;;;;5073404;28;20049;-77
2023/08/23 11:05:29;;;;;;;12.57;4.68;;;25.90;98.20;;;;;;5073219;28;20075;-77
2023/08/23 11:07:57;;;;;;;10.80;5.53;;;25.00;98.00;;;;;;5056260;28;20126;-77
2023/08/23 11:10:25;;;;;;;9.68;5.00;;;25.60;95.50;;;;;;5073087;28;20045;-77
2023/08/23 11:12:51;;;;;;;11.90;5.07;;;24.70;97.60;;;;;;5073389;28;20360;-77
2023/08/23 11:15:17;;;;;;;18.48;5.22;;;24.40;95.30;;;;;;5056282;28;20484;-77
2023/08/23 11:17:42;;;;;;;10.80;4.38;;;25.00;98.50;;;;;;5073338;28;20079;-77
2023/08/23 11:20:10;;;;;;;16.60;5.30;;;24.20;98.40;;;;;;5073116;28;20519;-77
2023/08/23 11:22:36;;;;;;;11.32;4.38;;;;;;;;;;5056708;28;20114;-73
2023/08/23 11:25:02;;;;;;;12.93;3.97;;;;;;;;;;5073288;28;20439;-76
2023/08/23 11:27:29;;;;;;;11.07;4.63;;;24.40;98.60;;;;;;5056064;28;20503;-77
2023/08/23 11:29:58;;;;;;;14.43;4.18;;;24.60;98.60;;;;;;5072724;28;20037;-77
2023/08/23 11:32:24;;;;;;;14.10;3.85;;;24.20;98.70;;;;;;5056073;28;20102;-76
2023/08/23 11:34:50;;;;;;;8.13;3.58;;;24.20;97.80;;;;;;5072681;28;20079;-76
2023/08/23 11:37:16;;;;;;;12.23;3.88;;;22.90;95.40;;;;;;5056163;28;20084;-76
2023/08/23 11:39:42;;;;;;;13.52;4.97;;;;;;;;;;5072607;28;20500;-76
2023/08/23 11:42:08;;;;;;;11.65;3.63;;;;;;;;;;5072660;28;20036;-76
2023/08/23 11:44:34;;;;;;;10.10;3.10;;;23.70;97.50;;;;;;5072458;28;20055;-73
2023/08/23 11:46:59;;;;;;;7.90;3.42;;;24.90;94.60;;;;;;5072653;28;20040;-73
2023/08/23 11:49:26;;;;;;;15.38;3.90;;;24.60;97.70;;;;;;5072335;28;20534;-73
2023/08/23 11:51:53;;;;;;;9.68;4.40;;;25.20;95.40;;;;;;5072441;28;20052;-74
2023/08/23 11:54:22;;;;;;;9.75;3.15;;;;;;;;;;5072594;28;20384;-74
2023/08/23 11:56:48;;;;;;;12.10;4.55;;;25.20;97.30;;;;;;5072476;28;20040;-73
2023/08/23 11:59:14;;;;;;;10.15;4.15;;;25.00;97.00;;;;;;5072185;28;20051;-73
2023/08/23 12:01:43;;;;;;;14.43;4.05;;;24.40;93.30;;;;;;5075369;28;20051;-73
2023/08/23 12:04:11;;;;;;;8.60;3.08;;;25.10;97.20;;;;;;5095923;28;20097;-73
2023/08/23 12:06:37;;;;;;;9.85;3.03;;;24.60;96.90;;;;;;5078902;28;20039;-74
2023/08/23 12:09:03;;;;;;;9.60;2.80;;;;;;;;;;5095714;28;20108;-73
2023/08/23 12:11:30;;;;;;;8.20;3.10;;;23.70;96.90;;;;;;5095596;28;20040;-73
2023/08/23 12:13:56;;;;;;;8.55;3.42;;;24.70;95.00;;;;;;5095542;28;20395;-73
2023/08/23 12:16:22;;;;;;;11.00;3.25;;;;;;;;;;5095462;28;20040;-73
2023/08/23 12:18:48;;;;;;;11.18;3.33;;;25.00;94.10;;;;;;5095662;28;20039;-73
2023/08/23 12:21:15;;;;;;;6.75;2.55;;;25.00;96.40;;;;;;5094853;28;20521;-76
2023/08/23 12:23:41;;;;;;;7.75;2.63;;;;;;;;;;5095692;28;20391;-76
2023/08/23 12:26:07;;;;;;;13.77;2.42;;;25.00;93.10;;;;;;5095653;28;20032;-76
2023/08/23 12:28:35;;;;;;;9.88;2.78;;;25.30;96.40;;;;;;5061684;28;20403;-76
2023/08/23 12:31:01;;;;;;;7.80;2.30;;;;;;;;;;5095597;28;20050;-76
2023/08/23 12:33:27;;;;;;;9.20;2.10;;;;;;;;;;5095456;28;20071;-76
2023/08/23 12:35:53;;;;;;;11.00;2.20;;;;;;;;;;5078566;28;20128;-77
2023/08/23 12:38:19;;;;;;;7.53;2.22;;;25.30;94.30;;;;;;5095333;28;20047;-76
2023/08/23 12:40:45;;;;;;;7.25;2.10;;;;;;;;;;5095578;28;20051;-76
2023/08/23 12:43:11;;;;;;;7.78;2.10;;;;;;;;;;5095245;28;20039;-73
2023/08/23 12:45:37;;;;;;;5.10;2.45;;;;;;;;;;5078313;28;20463;-73
2023/08/23 12:48:03;;;;;;;6.88;2.47;;;25.70;93.90;;;;;;5078340;28;20043;-73
2023/08/23 12:50:29;;;;;;;8.60;2.65;;;;;;;;;;5078175;28;20391;-73
2023/08/23 12:52:54;;;;;;;10.85;2.95;;;25.30;93.80;;;;;;5078225;28;20039;-73
2023/08/23 12:55:21;;;;;;;10.32;2.88;;;;;;;;;;5095235;28;20036;-73
2023/08/23 12:57:47;;;;;;;10.48;3.55;;;;;;;;;;5072658;28;20099;-73
2023/08/23 13:00:14;;;;;;;9.25;4.18;;;26.50;91.30;;;;;;5065051;28;20035;-76
2023/08/23 13:02:39;;;;;;;13.15;5.68;;;25.80;95.60;;;;;;5083761;28;20407;-72
2023/08/23 13:05:05;;;;;;;13.75;4.95;;;26.00;95.90;;;;;;5085958;28;20176;-72